sensor_id;sensor_type;location;lat;lon;timestamp;P1;durP1;ratioP1;P2;durP2;ratioP2
12535;SDS011;6334;48.696;2.114;2023-03-26T00:00:33;8.23;;;2.40;;
12535;SDS011;6334;48.696;2.114;2023-03-26T00:03:03;5.13;;;1.80;;
12535;SDS011;6334;48.696;2.114;2023-03-26T00:05:32;3.77;;;2.30;;
12535;SDS011;6334;48.696;2.114;2023-03-26T00:08:02;4.20;;;1.97;;
12535;SDS011;6334;48.696;2.114;2023-03-26T00:10:34;5.40;;;1.67;;
12535;SDS011;6334;48.696;2.114;2023-03-26T00:13:07;3.87;;;1.70;;
12535;SDS011;6334;48.696;2.114;2023-03-26T00:15:36;3.50;;;1.77;;
12535;SDS011;6334;48.696;2.114;2023-03-26T00:18:05;3.03;;;1.63;;
12535;SDS011;6334;48.696;2.114;2023-03-26T00:20:35;4.63;;;1.97;;
12535;SDS011;6334;48.696;2.114;2023-03-26T00:23:05;1.27;;;1.17;;
12535;SDS011;6334;48.696;2.114;2023-03-26T00:25:36;4.40;;;1.63;;
12535;SDS011;6334;48.696;2.114;2023-03-26T00:28:06;4.40;;;1.77;;
12535;SDS011;6334;48.696;2.114;2023-03-26T00:30:35;3.97;;;1.73;;
12535;SDS011;6334;48.696;2.114;2023-03-26T00:33:05;4.03;;;1.90;;
12535;SDS011;6334;48.696;2.114;2023-03-26T00:35:35;5.67;;;2.27;;
12535;SDS011;6334;48.696;2.114;2023-03-26T00:38:05;4.20;;;1.50;;
12535;SDS011;6334;48.696;2.114;2023-03-26T00:40:35;5.20;;;2.13;;
12535;SDS011;6334;48.696;2.114;2023-03-26T00:43:06;3.07;;;1.57;;
12535;SDS011;6334;48.696;2.114;2023-03-26T00:45:35;5.20;;;1.73;;
12535;SDS011;6334;48.696;2.114;2023-03-26T00:48:05;8.23;;;2.77;;
12535;SDS011;6334;48.696;2.114;2023-03-26T00:50:36;3.10;;;1.53;;
12535;SDS011;6334;48.696;2.114;2023-03-26T00:53:06;5.57;;;2.10;;
12535;SDS011;6334;48.696;2.114;2023-03-26T00:55:35;3.87;;;2.10;;
12535;SDS011;6334;48.696;2.114;2023-03-26T00:58:05;5.80;;;1.97;;
12535;SDS011;6334;48.696;2.114;2023-03-26T01:00:35;4.97;;;1.87;;
12535;SDS011;6334;48.696;2.114;2023-03-26T01:03:04;6.43;;;1.77;;
12535;SDS011;6334;48.696;2.114;2023-03-26T01:05:45;4.23;;;2.17;;
12535;SDS011;6334;48.696;2.114;2023-03-26T01:08:18;3.17;;;1.87;;
12535;SDS011;6334;48.696;2.114;2023-03-26T01:11:14;4.47;;;1.80;;
12535;SDS011;6334;48.696;2.114;2023-03-26T01:13:45;4.00;;;2.03;;
12535;SDS011;6334;48.696;2.114;2023-03-26T01:16:19;3.57;;;2.40;;
12535;SDS011;6334;48.696;2.114;2023-03-26T01:18:43;5.27;;;2.07;;
12535;SDS011;6334;48.696;2.114;2023-03-26T01:21:13;4.10;;;1.70;;
12535;SDS011;6334;48.696;2.114;2023-03-26T01:23:44;6.00;;;2.10;;
12535;SDS011;6334;48.696;2.114;2023-03-26T01:26:18;5.90;;;2.03;;
12535;SDS011;6334;48.696;2.114;2023-03-26T01:28:47;6.03;;;1.93;;
12535;SDS011;6334;48.696;2.114;2023-03-26T01:31:19;5.30;;;1.70;;
12535;SDS011;6334;48.696;2.114;2023-03-26T01:33:51;6.47;;;2.20;;
12535;SDS011;6334;48.696;2.114;2023-03-26T01:36:33;3.90;;;2.00;;
12535;SDS011;6334;48.696;2.114;2023-03-26T01:39:07;4.13;;;2.00;;
12535;SDS011;6334;48.696;2.114;2023-03-26T01:41:40;6.23;;;1.77;;
12535;SDS011;6334;48.696;2.114;2023-03-26T01:46:45;3.10;;;1.77;;
12535;SDS011;6334;48.696;2.114;2023-03-26T01:49:15;3.17;;;1.60;;
12535;SDS011;6334;48.696;2.114;2023-03-26T01:51:44;6.57;;;2.00;;
12535;SDS011;6334;48.696;2.114;2023-03-26T01:54:15;2.97;;;1.63;;
12535;SDS011;6334;48.696;2.114;2023-03-26T01:56:49;2.03;;;1.70;;
12535;SDS011;6334;48.696;2.114;2023-03-26T02:02:07;4.30;;;1.90;;
12535;SDS011;6334;48.696;2.114;2023-03-26T02:07:51;4.83;;;1.87;;
12535;SDS011;6334;48.696;2.114;2023-03-26T02:10:31;3.67;;;1.57;;
12535;SDS011;6334;48.696;2.114;2023-03-26T02:12:59;6.10;;;2.37;;
12535;SDS011;6334;48.696;2.114;2023-03-26T02:15:29;6.37;;;1.93;;
12535;SDS011;6334;48.696;2.114;2023-03-26T02:17:59;4.07;;;1.70;;
12535;SDS011;6334;48.696;2.114;2023-03-26T02:20:30;7.60;;;2.27;;
12535;SDS011;6334;48.696;2.114;2023-03-26T02:22:59;5.17;;;1.90;;
12535;SDS011;6334;48.696;2.114;2023-03-26T02:25:29;5.50;;;2.10;;
12535;SDS011;6334;48.696;2.114;2023-03-26T02:27:58;3.70;;;2.30;;
12535;SDS011;6334;48.696;2.114;2023-03-26T02:30:29;5.53;;;2.57;;
12535;SDS011;6334;48.696;2.114;2023-03-26T02:32:59;4.97;;;1.90;;
12535;SDS011;6334;48.696;2.114;2023-03-26T02:35:28;4.10;;;1.70;;
12535;SDS011;6334;48.696;2.114;2023-03-26T02:37:58;5.37;;;2.60;;
12535;SDS011;6334;48.696;2.114;2023-03-26T02:40:30;4.87;;;1.80;;
12535;SDS011;6334;48.696;2.114;2023-03-26T02:42:59;5.33;;;2.47;;
12535;SDS011;6334;48.696;2.114;2023-03-26T02:45:29;8.83;;;2.13;;
12535;SDS011;6334;48.696;2.114;2023-03-26T02:47:59;8.87;;;2.30;;
12535;SDS011;6334;48.696;2.114;2023-03-26T02:50:29;3.23;;;1.70;;
12535;SDS011;6334;48.696;2.114;2023-03-26T02:52:58;4.90;;;1.93;;
12535;SDS011;6334;48.696;2.114;2023-03-26T02:55:28;6.07;;;2.27;;
12535;SDS011;6334;48.696;2.114;2023-03-26T02:57:58;2.40;;;1.90;;
12535;SDS011;6334;48.696;2.114;2023-03-26T03:00:27;5.07;;;2.43;;
12535;SDS011;6334;48.696;2.114;2023-03-26T03:02:57;5.93;;;2.37;;
12535;SDS011;6334;48.696;2.114;2023-03-26T03:05:26;4.30;;;2.20;;
12535;SDS011;6334;48.696;2.114;2023-03-26T03:07:56;4.13;;;2.27;;
12535;SDS011;6334;48.696;2.114;2023-03-26T03:10:27;7.03;;;2.20;;
12535;SDS011;6334;48.696;2.114;2023-03-26T03:12:56;9.73;;;2.20;;
12535;SDS011;6334;48.696;2.114;2023-03-26T03:15:26;6.27;;;2.60;;
12535;SDS011;6334;48.696;2.114;2023-03-26T03:17:56;6.87;;;2.40;;
12535;SDS011;6334;48.696;2.114;2023-03-26T03:20:27;5.37;;;2.33;;
12535;SDS011;6334;48.696;2.114;2023-03-26T03:22:57;4.97;;;2.37;;
12535;SDS011;6334;48.696;2.114;2023-03-26T03:25:28;2.73;;;1.80;;
12535;SDS011;6334;48.696;2.114;2023-03-26T03:27:58;4.70;;;2.10;;
12535;SDS011;6334;48.696;2.114;2023-03-26T03:30:28;8.50;;;2.20;;
12535;SDS011;6334;48.696;2.114;2023-03-26T03:32:57;2.63;;;1.73;;
12535;SDS011;6334;48.696;2.114;2023-03-26T03:35:28;9.47;;;2.57;;
12535;SDS011;6334;48.696;2.114;2023-03-26T03:37:58;7.03;;;1.77;;
12535;SDS011;6334;48.696;2.114;2023-03-26T03:40:28;3.90;;;1.40;;
12535;SDS011;6334;48.696;2.114;2023-03-26T03:42:58;4.23;;;1.90;;
12535;SDS011;6334;48.696;2.114;2023-03-26T03:45:28;2.70;;;2.17;;
12535;SDS011;6334;48.696;2.114;2023-03-26T03:47:58;3.57;;;2.00;;
12535;SDS011;6334;48.696;2.114;2023-03-26T03:50:28;3.17;;;1.33;;
12535;SDS011;6334;48.696;2.114;2023-03-26T03:52:59;3.87;;;2.37;;
12535;SDS011;6334;48.696;2.114;2023-03-26T03:55:28;4.77;;;1.93;;
12535;SDS011;6334;48.696;2.114;2023-03-26T03:57:59;7.20;;;2.23;;
12535;SDS011;6334;48.696;2.114;2023-03-26T04:00:28;4.33;;;2.07;;
12535;SDS011;6334;48.696;2.114;2023-03-26T04:02:58;5.47;;;2.57;;
12535;SDS011;6334;48.696;2.114;2023-03-26T04:05:29;4.47;;;1.87;;
12535;SDS011;6334;48.696;2.114;2023-03-26T04:07:59;4.47;;;1.77;;
12535;SDS011;6334;48.696;2.114;2023-03-26T04:10:28;6.20;;;2.40;;
12535;SDS011;6334;48.696;2.114;2023-03-26T04:12:59;7.17;;;2.23;;
12535;SDS011;6334;48.696;2.114;2023-03-26T04:15:30;4.70;;;2.13;;
12535;SDS011;6334;48.696;2.114;2023-03-26T04:18:01;5.63;;;1.50;;
12535;SDS011;6334;48.696;2.114;2023-03-26T04:20:31;4.23;;;1.60;;
12535;SDS011;6334;48.696;2.114;2023-03-26T04:23:00;3.97;;;1.53;;
12535;SDS011;6334;48.696;2.114;2023-03-26T04:25:30;5.83;;;1.83;;
12535;SDS011;6334;48.696;2.114;2023-03-26T04:28:02;3.53;;;1.00;;
12535;SDS011;6334;48.696;2.114;2023-03-26T04:30:32;3.30;;;0.93;;
12535;SDS011;6334;48.696;2.114;2023-03-26T04:33:02;4.33;;;1.53;;
12535;SDS011;6334;48.696;2.114;2023-03-26T04:35:32;4.27;;;1.30;;
12535;SDS011;6334;48.696;2.114;2023-03-26T04:38:02;5.80;;;1.83;;
12535;SDS011;6334;48.696;2.114;2023-03-26T04:40:32;3.23;;;0.93;;
12535;SDS011;6334;48.696;2.114;2023-03-26T04:43:01;3.93;;;1.33;;
12535;SDS011;6334;48.696;2.114;2023-03-26T04:45:31;3.13;;;1.37;;
12535;SDS011;6334;48.696;2.114;2023-03-26T04:48:00;1.20;;;0.70;;
12535;SDS011;6334;48.696;2.114;2023-03-26T04:50:30;6.33;;;1.80;;
12535;SDS011;6334;48.696;2.114;2023-03-26T04:52:59;2.00;;;1.10;;
12535;SDS011;6334;48.696;2.114;2023-03-26T04:55:34;2.20;;;1.20;;
12535;SDS011;6334;48.696;2.114;2023-03-26T04:58:01;1.70;;;1.03;;
12535;SDS011;6334;48.696;2.114;2023-03-26T05:00:31;3.83;;;0.93;;
12535;SDS011;6334;48.696;2.114;2023-03-26T05:03:00;2.53;;;1.10;;
12535;SDS011;6334;48.696;2.114;2023-03-26T05:05:30;4.10;;;1.87;;
12535;SDS011;6334;48.696;2.114;2023-03-26T05:08:01;4.20;;;1.20;;
12535;SDS011;6334;48.696;2.114;2023-03-26T05:10:30;5.20;;;1.10;;
12535;SDS011;6334;48.696;2.114;2023-03-26T05:13:00;3.27;;;1.60;;
12535;SDS011;6334;48.696;2.114;2023-03-26T05:15:29;4.63;;;1.43;;
12535;SDS011;6334;48.696;2.114;2023-03-26T05:17:59;2.70;;;1.23;;
12535;SDS011;6334;48.696;2.114;2023-03-26T05:20:29;3.30;;;1.33;;
12535;SDS011;6334;48.696;2.114;2023-03-26T05:22:59;7.63;;;1.87;;
12535;SDS011;6334;48.696;2.114;2023-03-26T05:25:29;4.10;;;1.60;;
12535;SDS011;6334;48.696;2.114;2023-03-26T05:27:59;3.53;;;1.67;;
12535;SDS011;6334;48.696;2.114;2023-03-26T05:30:28;3.37;;;1.30;;
12535;SDS011;6334;48.696;2.114;2023-03-26T05:32:58;4.30;;;1.50;;
12535;SDS011;6334;48.696;2.114;2023-03-26T05:35:27;6.10;;;2.10;;
12535;SDS011;6334;48.696;2.114;2023-03-26T05:37:57;3.93;;;1.87;;
12535;SDS011;6334;48.696;2.114;2023-03-26T05:40:26;3.50;;;1.27;;
12535;SDS011;6334;48.696;2.114;2023-03-26T05:42:57;4.40;;;1.53;;
12535;SDS011;6334;48.696;2.114;2023-03-26T05:45:26;5.20;;;1.67;;
12535;SDS011;6334;48.696;2.114;2023-03-26T05:47:56;3.07;;;1.73;;
12535;SDS011;6334;48.696;2.114;2023-03-26T05:50:26;4.77;;;1.67;;
12535;SDS011;6334;48.696;2.114;2023-03-26T05:52:55;1.80;;;1.33;;
12535;SDS011;6334;48.696;2.114;2023-03-26T05:55:25;5.50;;;2.00;;
12535;SDS011;6334;48.696;2.114;2023-03-26T05:57:55;3.93;;;2.27;;
12535;SDS011;6334;48.696;2.114;2023-03-26T06:00:25;4.37;;;1.80;;
12535;SDS011;6334;48.696;2.114;2023-03-26T06:02:54;4.63;;;1.77;;
12535;SDS011;6334;48.696;2.114;2023-03-26T06:05:24;2.67;;;1.73;;
12535;SDS011;6334;48.696;2.114;2023-03-26T06:08:04;4.77;;;2.00;;
12535;SDS011;6334;48.696;2.114;2023-03-26T06:10:36;3.67;;;1.77;;
12535;SDS011;6334;48.696;2.114;2023-03-26T06:13:03;7.57;;;2.47;;
12535;SDS011;6334;48.696;2.114;2023-03-26T06:15:32;7.83;;;2.10;;
12535;SDS011;6334;48.696;2.114;2023-03-26T06:18:02;4.67;;;1.60;;
12535;SDS011;6334;48.696;2.114;2023-03-26T06:20:32;4.73;;;1.87;;
12535;SDS011;6334;48.696;2.114;2023-03-26T06:23:03;4.23;;;2.00;;
12535;SDS011;6334;48.696;2.114;2023-03-26T06:25:33;6.03;;;1.90;;
12535;SDS011;6334;48.696;2.114;2023-03-26T06:28:03;7.33;;;1.87;;
12535;SDS011;6334;48.696;2.114;2023-03-26T06:30:34;4.93;;;1.83;;
12535;SDS011;6334;48.696;2.114;2023-03-26T06:33:04;3.20;;;1.77;;
12535;SDS011;6334;48.696;2.114;2023-03-26T06:35:34;5.47;;;1.77;;
12535;SDS011;6334;48.696;2.114;2023-03-26T06:38:04;8.80;;;2.10;;
12535;SDS011;6334;48.696;2.114;2023-03-26T06:40:34;6.43;;;2.33;;
12535;SDS011;6334;48.696;2.114;2023-03-26T06:43:03;5.23;;;1.90;;
12535;SDS011;6334;48.696;2.114;2023-03-26T06:45:34;8.33;;;2.33;;
12535;SDS011;6334;48.696;2.114;2023-03-26T06:48:03;8.47;;;2.57;;
12535;SDS011;6334;48.696;2.114;2023-03-26T06:50:34;9.00;;;2.57;;
12535;SDS011;6334;48.696;2.114;2023-03-26T06:53:04;7.60;;;2.43;;
12535;SDS011;6334;48.696;2.114;2023-03-26T06:55:35;8.43;;;2.07;;
12535;SDS011;6334;48.696;2.114;2023-03-26T06:58:04;6.20;;;2.03;;
12535;SDS011;6334;48.696;2.114;2023-03-26T07:00:35;9.70;;;2.23;;
12535;SDS011;6334;48.696;2.114;2023-03-26T07:03:05;9.07;;;2.43;;
12535;SDS011;6334;48.696;2.114;2023-03-26T07:05:36;8.00;;;2.13;;
12535;SDS011;6334;48.696;2.114;2023-03-26T07:08:05;8.73;;;2.53;;
12535;SDS011;6334;48.696;2.114;2023-03-26T07:10:36;4.70;;;2.20;;
12535;SDS011;6334;48.696;2.114;2023-03-26T07:13:07;6.63;;;2.00;;
12535;SDS011;6334;48.696;2.114;2023-03-26T07:15:36;8.70;;;2.17;;
12535;SDS011;6334;48.696;2.114;2023-03-26T07:18:07;12.23;;;2.33;;
12535;SDS011;6334;48.696;2.114;2023-03-26T07:20:37;5.93;;;2.27;;
12535;SDS011;6334;48.696;2.114;2023-03-26T07:23:08;6.07;;;2.57;;
12535;SDS011;6334;48.696;2.114;2023-03-26T07:25:37;8.77;;;2.63;;
12535;SDS011;6334;48.696;2.114;2023-03-26T07:28:19;8.80;;;2.57;;
12535;SDS011;6334;48.696;2.114;2023-03-26T07:30:52;7.07;;;2.23;;
12535;SDS011;6334;48.696;2.114;2023-03-26T07:33:25;8.47;;;2.60;;
12535;SDS011;6334;48.696;2.114;2023-03-26T07:38:32;7.93;;;2.93;;
12535;SDS011;6334;48.696;2.114;2023-03-26T07:41:11;7.13;;;2.93;;
12535;SDS011;6334;48.696;2.114;2023-03-26T07:43:51;10.07;;;3.07;;
12535;SDS011;6334;48.696;2.114;2023-03-26T07:46:16;9.87;;;2.53;;
12535;SDS011;6334;48.696;2.114;2023-03-26T07:48:47;7.00;;;2.60;;
12535;SDS011;6334;48.696;2.114;2023-03-26T07:51:17;11.17;;;2.83;;
12535;SDS011;6334;48.696;2.114;2023-03-26T07:53:47;8.00;;;2.80;;
12535;SDS011;6334;48.696;2.114;2023-03-26T07:56:19;5.63;;;2.83;;
12535;SDS011;6334;48.696;2.114;2023-03-26T08:04:22;7.87;;;2.70;;
12535;SDS011;6334;48.696;2.114;2023-03-26T08:06:59;10.03;;;2.40;;
12535;SDS011;6334;48.696;2.114;2023-03-26T08:12:17;5.07;;;2.30;;
12535;SDS011;6334;48.696;2.114;2023-03-26T08:17:49;7.97;;;2.87;;
12535;SDS011;6334;48.696;2.114;2023-03-26T08:20:23;5.93;;;2.60;;
12535;SDS011;6334;48.696;2.114;2023-03-26T08:31:40;10.07;;;1.93;;
12535;SDS011;6334;48.696;2.114;2023-03-26T08:34:11;6.40;;;2.27;;
12535;SDS011;6334;48.696;2.114;2023-03-26T08:36:41;6.97;;;2.53;;
12535;SDS011;6334;48.696;2.114;2023-03-26T08:39:11;5.80;;;2.30;;
12535;SDS011;6334;48.696;2.114;2023-03-26T08:41:57;3.97;;;1.97;;
12535;SDS011;6334;48.696;2.114;2023-03-26T08:47:21;8.00;;;2.43;;
12535;SDS011;6334;48.696;2.114;2023-03-26T08:50:02;5.30;;;1.47;;
12535;SDS011;6334;48.696;2.114;2023-03-26T08:52:55;5.90;;;1.80;;
12535;SDS011;6334;48.696;2.114;2023-03-26T08:55:31;2.03;;;1.30;;
12535;SDS011;6334;48.696;2.114;2023-03-26T09:00:49;2.93;;;1.40;;
12535;SDS011;6334;48.696;2.114;2023-03-26T09:06:31;7.10;;;1.83;;
12535;SDS011;6334;48.696;2.114;2023-03-26T09:08:57;3.47;;;1.57;;
12535;SDS011;6334;48.696;2.114;2023-03-26T09:19:35;4.10;;;1.57;;
12535;SDS011;6334;48.696;2.114;2023-03-26T09:27:34;4.30;;;1.50;;
12535;SDS011;6334;48.696;2.114;2023-03-26T09:33:25;2.73;;;1.50;;
12535;SDS011;6334;48.696;2.114;2023-03-26T09:41:34;5.03;;;2.03;;
12535;SDS011;6334;48.696;2.114;2023-03-26T09:46:45;3.93;;;1.87;;
12535;SDS011;6334;48.696;2.114;2023-03-26T09:49:42;2.80;;;1.43;;
12535;SDS011;6334;48.696;2.114;2023-03-26T09:52:20;2.00;;;1.23;;
12535;SDS011;6334;48.696;2.114;2023-03-26T09:58:14;3.00;;;1.07;;
12535;SDS011;6334;48.696;2.114;2023-03-26T10:09:18;2.10;;;1.00;;
12535;SDS011;6334;48.696;2.114;2023-03-26T10:12:02;1.63;;;0.87;;
12535;SDS011;6334;48.696;2.114;2023-03-26T10:15:49;3.23;;;1.17;;
12535;SDS011;6334;48.696;2.114;2023-03-26T10:20:42;2.33;;;1.53;;
12535;SDS011;6334;48.696;2.114;2023-03-26T10:37:20;3.23;;;1.50;;
12535;SDS011;6334;48.696;2.114;2023-03-26T10:42:40;3.37;;;1.80;;
12535;SDS011;6334;48.696;2.114;2023-03-26T10:48:18;3.63;;;1.03;;
12535;SDS011;6334;48.696;2.114;2023-03-26T10:56:27;4.23;;;1.73;;
12535;SDS011;6334;48.696;2.114;2023-03-26T10:59:14;2.57;;;1.00;;
12535;SDS011;6334;48.696;2.114;2023-03-26T11:02:03;5.57;;;1.77;;
12535;SDS011;6334;48.696;2.114;2023-03-26T11:07:32;3.70;;;1.23;;
12535;SDS011;6334;48.696;2.114;2023-03-26T11:10:08;4.13;;;1.50;;
12535;SDS011;6334;48.696;2.114;2023-03-26T11:15:16;5.67;;;2.30;;
12535;SDS011;6334;48.696;2.114;2023-03-26T11:17:53;3.40;;;1.60;;
12535;SDS011;6334;48.696;2.114;2023-03-26T11:20:34;3.93;;;1.57;;
12535;SDS011;6334;48.696;2.114;2023-03-26T11:23:14;3.80;;;1.03;;
12535;SDS011;6334;48.696;2.114;2023-03-26T11:26:06;3.00;;;1.30;;
12535;SDS011;6334;48.696;2.114;2023-03-26T11:34:15;5.50;;;2.10;;
12535;SDS011;6334;48.696;2.114;2023-03-26T11:36:49;3.80;;;1.77;;
12535;SDS011;6334;48.696;2.114;2023-03-26T11:39:25;2.87;;;2.07;;
12535;SDS011;6334;48.696;2.114;2023-03-26T11:42:02;6.97;;;2.40;;
12535;SDS011;6334;48.696;2.114;2023-03-26T11:44:33;3.60;;;2.37;;
12535;SDS011;6334;48.696;2.114;2023-03-26T11:47:06;2.97;;;1.83;;
12535;SDS011;6334;48.696;2.114;2023-03-26T11:49:37;3.47;;;1.47;;
12535;SDS011;6334;48.696;2.114;2023-03-26T11:52:11;3.53;;;1.63;;
12535;SDS011;6334;48.696;2.114;2023-03-26T11:54:41;5.73;;;2.10;;
12535;SDS011;6334;48.696;2.114;2023-03-26T11:57:21;2.83;;;2.10;;
12535;SDS011;6334;48.696;2.114;2023-03-26T11:59:53;1.63;;;1.40;;
12535;SDS011;6334;48.696;2.114;2023-03-26T12:04:52;3.10;;;1.27;;
12535;SDS011;6334;48.696;2.114;2023-03-26T12:09:59;3.47;;;1.43;;
12535;SDS011;6334;48.696;2.114;2023-03-26T12:12:32;2.03;;;1.07;;
12535;SDS011;6334;48.696;2.114;2023-03-26T12:15:02;2.00;;;1.20;;
12535;SDS011;6334;48.696;2.114;2023-03-26T12:17:34;2.03;;;1.20;;
12535;SDS011;6334;48.696;2.114;2023-03-26T12:20:21;6.07;;;1.60;;
12535;SDS011;6334;48.696;2.114;2023-03-26T12:22:34;3.40;;;1.63;;
12535;SDS011;6334;48.696;2.114;2023-03-26T12:25:23;5.57;;;2.90;;
12535;SDS011;6334;48.696;2.114;2023-03-26T12:28:02;4.20;;;2.33;;
12535;SDS011;6334;48.696;2.114;2023-03-26T12:30:32;4.03;;;2.60;;
12535;SDS011;6334;48.696;2.114;2023-03-26T12:33:05;4.53;;;1.97;;
12535;SDS011;6334;48.696;2.114;2023-03-26T12:35:35;4.30;;;2.03;;
12535;SDS011;6334;48.696;2.114;2023-03-26T12:41:04;4.87;;;1.83;;
12535;SDS011;6334;48.696;2.114;2023-03-26T12:48:58;5.87;;;2.47;;
12535;SDS011;6334;48.696;2.114;2023-03-26T12:51:38;5.53;;;2.03;;
12535;SDS011;6334;48.696;2.114;2023-03-26T13:02:31;2.83;;;1.97;;
12535;SDS011;6334;48.696;2.114;2023-03-26T13:14:27;11.67;;;4.63;;
12535;SDS011;6334;48.696;2.114;2023-03-26T13:17:03;6.87;;;3.50;;
12535;SDS011;6334;48.696;2.114;2023-03-26T13:20:09;7.03;;;3.47;;
12535;SDS011;6334;48.696;2.114;2023-03-26T13:22:38;8.40;;;3.80;;
12535;SDS011;6334;48.696;2.114;2023-03-26T13:30:40;3.40;;;2.73;;
12535;SDS011;6334;48.696;2.114;2023-03-26T13:44:02;3.43;;;1.20;;
12535;SDS011;6334;48.696;2.114;2023-03-26T13:46:35;3.23;;;1.07;;
12535;SDS011;6334;48.696;2.114;2023-03-26T13:49:08;1.23;;;1.17;;
12535;SDS011;6334;48.696;2.114;2023-03-26T13:51:46;0.77;;;0.77;;
12535;SDS011;6334;48.696;2.114;2023-03-26T13:54:19;3.00;;;0.80;;
12535;SDS011;6334;48.696;2.114;2023-03-26T13:56:58;2.63;;;0.77;;
12535;SDS011;6334;48.696;2.114;2023-03-26T13:59:47;2.57;;;2.37;;
12535;SDS011;6334;48.696;2.114;2023-03-26T14:02:22;2.40;;;1.50;;
12535;SDS011;6334;48.696;2.114;2023-03-26T14:04:50;1.70;;;0.97;;
12535;SDS011;6334;48.696;2.114;2023-03-26T14:07:26;3.77;;;1.80;;
12535;SDS011;6334;48.696;2.114;2023-03-26T14:12:31;22.40;;;4.37;;
12535;SDS011;6334;48.696;2.114;2023-03-26T14:15:12;23.43;;;3.67;;
12535;SDS011;6334;48.696;2.114;2023-03-26T14:20:42;10.73;;;2.70;;
12535;SDS011;6334;48.696;2.114;2023-03-26T14:26:12;8.10;;;1.67;;
12535;SDS011;6334;48.696;2.114;2023-03-26T14:29:04;7.93;;;1.87;;
12535;SDS011;6334;48.696;2.114;2023-03-26T14:31:43;6.73;;;2.53;;
12535;SDS011;6334;48.696;2.114;2023-03-26T14:34:18;5.57;;;2.47;;
12535;SDS011;6334;48.696;2.114;2023-03-26T14:36:49;10.30;;;3.57;;
12535;SDS011;6334;48.696;2.114;2023-03-26T14:42:07;51.67;;;6.57;;
12535;SDS011;6334;48.696;2.114;2023-03-26T14:45:07;43.33;;;7.27;;
12535;SDS011;6334;48.696;2.114;2023-03-26T14:47:22;16.27;;;3.73;;
12535;SDS011;6334;48.696;2.114;2023-03-26T14:52:52;29.70;;;4.97;;
12535;SDS011;6334;48.696;2.114;2023-03-26T14:58:23;2.87;;;1.60;;
12535;SDS011;6334;48.696;2.114;2023-03-26T15:15:29;1.93;;;1.40;;
12535;SDS011;6334;48.696;2.114;2023-03-26T15:18:30;3.33;;;1.77;;
12535;SDS011;6334;48.696;2.114;2023-03-26T15:24:08;2.93;;;2.30;;
12535;SDS011;6334;48.696;2.114;2023-03-26T15:29:38;3.37;;;2.10;;
12535;SDS011;6334;48.696;2.114;2023-03-26T15:35:10;2.10;;;1.30;;
12535;SDS011;6334;48.696;2.114;2023-03-26T15:37:51;2.43;;;1.63;;
12535;SDS011;6334;48.696;2.114;2023-03-26T15:43:31;1.83;;;1.50;;
12535;SDS011;6334;48.696;2.114;2023-03-26T15:48:43;2.00;;;1.20;;
12535;SDS011;6334;48.696;2.114;2023-03-26T16:04:50;1.90;;;1.73;;
12535;SDS011;6334;48.696;2.114;2023-03-26T16:10:08;1.30;;;1.20;;
12535;SDS011;6334;48.696;2.114;2023-03-26T16:12:30;1.83;;;1.20;;
12535;SDS011;6334;48.696;2.114;2023-03-26T16:20:53;3.87;;;2.10;;
12535;SDS011;6334;48.696;2.114;2023-03-26T16:28:34;1.20;;;1.03;;
12535;SDS011;6334;48.696;2.114;2023-03-26T16:31:16;1.87;;;0.80;;
12535;SDS011;6334;48.696;2.114;2023-03-26T16:44:20;1.13;;;0.53;;
12535;SDS011;6334;48.696;2.114;2023-03-26T16:50:02;2.17;;;0.87;;
12535;SDS011;6334;48.696;2.114;2023-03-26T16:58:03;1.60;;;0.77;;
12535;SDS011;6334;48.696;2.114;2023-03-26T17:05:57;0.90;;;0.80;;
12535;SDS011;6334;48.696;2.114;2023-03-26T17:08:30;2.63;;;1.40;;
12535;SDS011;6334;48.696;2.114;2023-03-26T17:11:15;1.87;;;1.77;;
12535;SDS011;6334;48.696;2.114;2023-03-26T17:13:44;1.77;;;0.90;;
12535;SDS011;6334;48.696;2.114;2023-03-26T17:16:27;1.50;;;0.90;;
12535;SDS011;6334;48.696;2.114;2023-03-26T17:21:56;2.20;;;0.83;;
12535;SDS011;6334;48.696;2.114;2023-03-26T17:24:38;1.37;;;1.27;;
12535;SDS011;6334;48.696;2.114;2023-03-26T17:27:24;4.07;;;1.70;;
12535;SDS011;6334;48.696;2.114;2023-03-26T17:35:38;4.87;;;1.50;;
12535;SDS011;6334;48.696;2.114;2023-03-26T17:40:54;2.77;;;1.40;;
12535;SDS011;6334;48.696;2.114;2023-03-26T17:43:35;1.00;;;1.00;;
12535;SDS011;6334;48.696;2.114;2023-03-26T17:46:38;2.87;;;1.43;;
12535;SDS011;6334;48.696;2.114;2023-03-26T18:03:09;0.80;;;0.80;;
12535;SDS011;6334;48.696;2.114;2023-03-26T18:05:32;1.50;;;1.40;;
12535;SDS011;6334;48.696;2.114;2023-03-26T18:10:59;1.43;;;1.33;;
12535;SDS011;6334;48.696;2.114;2023-03-26T18:16:11;1.17;;;1.07;;
12535;SDS011;6334;48.696;2.114;2023-03-26T18:18:50;1.43;;;0.83;;
12535;SDS011;6334;48.696;2.114;2023-03-26T18:21:38;1.23;;;1.13;;
12535;SDS011;6334;48.696;2.114;2023-03-26T18:23:53;1.00;;;0.90;;
12535;SDS011;6334;48.696;2.114;2023-03-26T18:26:47;1.30;;;1.20;;
12535;SDS011;6334;48.696;2.114;2023-03-26T18:29:07;1.03;;;0.90;;
12535;SDS011;6334;48.696;2.114;2023-03-26T18:31:25;1.70;;;1.37;;
12535;SDS011;6334;48.696;2.114;2023-03-26T18:33:55;1.00;;;1.00;;
12535;SDS011;6334;48.696;2.114;2023-03-26T18:36:26;1.27;;;1.20;;
12535;SDS011;6334;48.696;2.114;2023-03-26T18:38:58;1.23;;;1.17;;
12535;SDS011;6334;48.696;2.114;2023-03-26T18:41:33;1.33;;;1.33;;
12535;SDS011;6334;48.696;2.114;2023-03-26T18:44:05;1.00;;;0.90;;
12535;SDS011;6334;48.696;2.114;2023-03-26T18:46:34;2.23;;;1.30;;
12535;SDS011;6334;48.696;2.114;2023-03-26T18:49:05;3.53;;;1.43;;
12535;SDS011;6334;48.696;2.114;2023-03-26T18:51:35;1.03;;;0.80;;
12535;SDS011;6334;48.696;2.114;2023-03-26T18:54:05;1.97;;;1.63;;
12535;SDS011;6334;48.696;2.114;2023-03-26T18:56:36;1.40;;;1.20;;
12535;SDS011;6334;48.696;2.114;2023-03-26T19:01:57;1.97;;;1.50;;
12535;SDS011;6334;48.696;2.114;2023-03-26T19:04:27;1.87;;;1.77;;
12535;SDS011;6334;48.696;2.114;2023-03-26T19:06:59;1.90;;;1.60;;
12535;SDS011;6334;48.696;2.114;2023-03-26T19:09:30;1.43;;;1.33;;
12535;SDS011;6334;48.696;2.114;2023-03-26T19:12:05;2.50;;;1.60;;
12535;SDS011;6334;48.696;2.114;2023-03-26T19:17:26;1.70;;;1.60;;
12535;SDS011;6334;48.696;2.114;2023-03-26T19:19:56;2.00;;;1.73;;
12535;SDS011;6334;48.696;2.114;2023-03-26T19:22:27;1.33;;;1.27;;
12535;SDS011;6334;48.696;2.114;2023-03-26T19:24:58;1.90;;;1.80;;
12535;SDS011;6334;48.696;2.114;2023-03-26T19:27:27;1.47;;;1.30;;
12535;SDS011;6334;48.696;2.114;2023-03-26T19:29:58;1.13;;;1.13;;
12535;SDS011;6334;48.696;2.114;2023-03-26T19:32:29;1.30;;;1.30;;
12535;SDS011;6334;48.696;2.114;2023-03-26T19:35:01;2.40;;;1.60;;
12535;SDS011;6334;48.696;2.114;2023-03-26T19:37:31;1.93;;;1.63;;
12535;SDS011;6334;48.696;2.114;2023-03-26T19:42:49;1.50;;;1.40;;
12535;SDS011;6334;48.696;2.114;2023-03-26T19:45:19;2.50;;;1.60;;
12535;SDS011;6334;48.696;2.114;2023-03-26T19:47:49;1.60;;;1.50;;
12535;SDS011;6334;48.696;2.114;2023-03-26T19:50:21;1.70;;;1.60;;
12535;SDS011;6334;48.696;2.114;2023-03-26T19:55:56;1.57;;;1.47;;
12535;SDS011;6334;48.696;2.114;2023-03-26T19:58:27;1.77;;;1.67;;
12535;SDS011;6334;48.696;2.114;2023-03-26T20:00:57;1.93;;;1.73;;
12535;SDS011;6334;48.696;2.114;2023-03-26T20:03:29;1.60;;;1.50;;
12535;SDS011;6334;48.696;2.114;2023-03-26T20:05:58;1.77;;;1.67;;
12535;SDS011;6334;48.696;2.114;2023-03-26T20:08:29;1.87;;;1.77;;
12535;SDS011;6334;48.696;2.114;2023-03-26T20:10:59;1.80;;;1.70;;
12535;SDS011;6334;48.696;2.114;2023-03-26T20:13:30;1.83;;;1.70;;
12535;SDS011;6334;48.696;2.114;2023-03-26T20:16:05;2.27;;;2.10;;
12535;SDS011;6334;48.696;2.114;2023-03-26T20:18:33;2.43;;;2.23;;
12535;SDS011;6334;48.696;2.114;2023-03-26T20:21:07;2.70;;;2.40;;
12535;SDS011;6334;48.696;2.114;2023-03-26T20:23:32;2.60;;;2.40;;
12535;SDS011;6334;48.696;2.114;2023-03-26T20:26:03;2.43;;;2.33;;
12535;SDS011;6334;48.696;2.114;2023-03-26T20:28:33;2.60;;;2.50;;
12535;SDS011;6334;48.696;2.114;2023-03-26T20:31:14;3.43;;;2.70;;
12535;SDS011;6334;48.696;2.114;2023-03-26T20:33:42;2.77;;;2.37;;
12535;SDS011;6334;48.696;2.114;2023-03-26T20:36:12;3.53;;;3.20;;